sensor_id;sensor_type;location;lat;lon;timestamp;P1;durP1;ratioP1;P2;durP2;ratioP2
59876;SDS011;45749;51.140;17.184;2023-03-23T00:00:52;52.80;;;34.90;;
59876;SDS011;45749;51.140;17.184;2023-03-23T00:03:19;52.20;;;33.97;;
59876;SDS011;45749;51.140;17.184;2023-03-23T00:05:46;51.50;;;33.05;;
59876;SDS011;45749;51.140;17.184;2023-03-23T00:08:18;47.80;;;29.65;;
59876;SDS011;45749;51.140;17.184;2023-03-23T00:10:48;51.33;;;30.05;;
59876;SDS011;45749;51.140;17.184;2023-03-23T00:13:17;45.05;;;28.90;;
59876;SDS011;45749;51.140;17.184;2023-03-23T00:15:45;47.05;;;29.55;;
59876;SDS011;45749;51.140;17.184;2023-03-23T00:18:13;43.67;;;28.77;;
59876;SDS011;45749;51.140;17.184;2023-03-23T00:20:50;43.72;;;27.80;;
59876;SDS011;45749;51.140;17.184;2023-03-23T00:23:22;41.40;;;26.50;;
59876;SDS011;45749;51.140;17.184;2023-03-23T00:25:51;40.78;;;28.60;;
59876;SDS011;45749;51.140;17.184;2023-03-23T00:28:25;40.55;;;26.63;;
59876;SDS011;45749;51.140;17.184;2023-03-23T00:30:58;44.45;;;27.58;;
59876;SDS011;45749;51.140;17.184;2023-03-23T00:33:33;41.28;;;27.48;;
59876;SDS011;45749;51.140;17.184;2023-03-23T00:36:12;41.85;;;28.67;;
59876;SDS011;45749;51.140;17.184;2023-03-23T00:38:38;41.38;;;28.05;;
59876;SDS011;45749;51.140;17.184;2023-03-23T00:41:06;39.08;;;26.42;;
59876;SDS011;45749;51.140;17.184;2023-03-23T00:43:33;41.15;;;26.85;;
59876;SDS011;45749;51.140;17.184;2023-03-23T00:46:01;38.38;;;25.38;;
59876;SDS011;45749;51.140;17.184;2023-03-23T00:48:33;35.95;;;24.23;;
59876;SDS011;45749;51.140;17.184;2023-03-23T00:51:00;35.47;;;23.63;;
59876;SDS011;45749;51.140;17.184;2023-03-23T00:53:31;40.90;;;26.63;;
59876;SDS011;45749;51.140;17.184;2023-03-23T00:55:57;36.67;;;24.13;;
59876;SDS011;45749;51.140;17.184;2023-03-23T00:58:22;32.53;;;23.80;;
59876;SDS011;45749;51.140;17.184;2023-03-23T01:00:48;36.83;;;23.45;;
59876;SDS011;45749;51.140;17.184;2023-03-23T01:03:13;33.70;;;24.85;;
59876;SDS011;45749;51.140;17.184;2023-03-23T01:05:43;37.42;;;23.50;;
59876;SDS011;45749;51.140;17.184;2023-03-23T01:08:11;36.95;;;22.98;;
59876;SDS011;45749;51.140;17.184;2023-03-23T01:10:38;32.97;;;21.85;;
59876;SDS011;45749;51.140;17.184;2023-03-23T01:13:05;33.20;;;22.00;;
59876;SDS011;45749;51.140;17.184;2023-03-23T01:15:31;30.17;;;22.08;;
59876;SDS011;45749;51.140;17.184;2023-03-23T01:17:57;33.30;;;21.98;;
59876;SDS011;45749;51.140;17.184;2023-03-23T01:20:23;32.13;;;22.75;;
59876;SDS011;45749;51.140;17.184;2023-03-23T01:22:51;33.78;;;21.67;;
59876;SDS011;45749;51.140;17.184;2023-03-23T01:25:18;32.65;;;21.73;;
59876;SDS011;45749;51.140;17.184;2023-03-23T01:27:43;34.60;;;22.63;;
59876;SDS011;45749;51.140;17.184;2023-03-23T01:30:10;32.97;;;22.13;;
59876;SDS011;45749;51.140;17.184;2023-03-23T01:32:37;32.00;;;22.63;;
59876;SDS011;45749;51.140;17.184;2023-03-23T01:35:04;32.70;;;23.15;;
59876;SDS011;45749;51.140;17.184;2023-03-23T01:37:30;31.98;;;20.50;;
59876;SDS011;45749;51.140;17.184;2023-03-23T01:39:56;33.58;;;20.95;;
59876;SDS011;45749;51.140;17.184;2023-03-23T01:42:22;31.20;;;20.15;;
59876;SDS011;45749;51.140;17.184;2023-03-23T01:47:20;32.30;;;19.90;;
59876;SDS011;45749;51.140;17.184;2023-03-23T01:49:48;28.15;;;19.92;;
59876;SDS011;45749;51.140;17.184;2023-03-23T01:52:19;27.65;;;19.05;;
59876;SDS011;45749;51.140;17.184;2023-03-23T01:54:51;29.83;;;20.20;;
59876;SDS011;45749;51.140;17.184;2023-03-23T01:57:20;29.45;;;19.60;;
59876;SDS011;45749;51.140;17.184;2023-03-23T01:59:49;29.17;;;19.50;;
59876;SDS011;45749;51.140;17.184;2023-03-23T02:02:17;36.22;;;21.98;;
59876;SDS011;45749;51.140;17.184;2023-03-23T02:04:45;35.08;;;22.27;;
59876;SDS011;45749;51.140;17.184;2023-03-23T02:07:12;32.40;;;21.00;;
59876;SDS011;45749;51.140;17.184;2023-03-23T02:09:40;30.40;;;20.45;;
59876;SDS011;45749;51.140;17.184;2023-03-23T02:12:06;27.45;;;19.45;;
59876;SDS011;45749;51.140;17.184;2023-03-23T02:14:31;28.08;;;19.08;;
59876;SDS011;45749;51.140;17.184;2023-03-23T02:17:10;28.42;;;19.52;;
59876;SDS011;45749;51.140;17.184;2023-03-23T02:22:40;26.52;;;17.05;;
59876;SDS011;45749;51.140;17.184;2023-03-23T02:25:41;27.52;;;18.48;;
59876;SDS011;45749;51.140;17.184;2023-03-23T02:28:27;26.88;;;16.48;;
59876;SDS011;45749;51.140;17.184;2023-03-23T02:33:56;28.83;;;15.80;;
59876;SDS011;45749;51.140;17.184;2023-03-23T02:36:36;23.95;;;16.38;;
59876;SDS011;45749;51.140;17.184;2023-03-23T02:41:56;26.50;;;15.93;;
59876;SDS011;45749;51.140;17.184;2023-03-23T02:44:27;22.98;;;15.00;;
59876;SDS011;45749;51.140;17.184;2023-03-23T02:46:56;20.67;;;14.88;;
59876;SDS011;45749;51.140;17.184;2023-03-23T02:49:24;23.23;;;14.48;;
59876;SDS011;45749;51.140;17.184;2023-03-23T02:51:52;20.95;;;14.55;;
59876;SDS011;45749;51.140;17.184;2023-03-23T02:54:19;22.08;;;15.15;;
59876;SDS011;45749;51.140;17.184;2023-03-23T02:56:47;21.30;;;14.32;;
59876;SDS011;45749;51.140;17.184;2023-03-23T02:59:15;21.13;;;14.68;;
59876;SDS011;45749;51.140;17.184;2023-03-23T03:04:07;19.02;;;12.70;;
59876;SDS011;45749;51.140;17.184;2023-03-23T03:06:49;22.35;;;14.13;;
59876;SDS011;45749;51.140;17.184;2023-03-23T03:17:53;22.48;;;15.02;;
59876;SDS011;45749;51.140;17.184;2023-03-23T03:20:25;24.67;;;15.38;;
59876;SDS011;45749;51.140;17.184;2023-03-23T03:22:53;20.83;;;14.55;;
59876;SDS011;45749;51.140;17.184;2023-03-23T03:25:20;21.08;;;13.32;;
59876;SDS011;45749;51.140;17.184;2023-03-23T03:27:47;19.70;;;12.95;;
59876;SDS011;45749;51.140;17.184;2023-03-23T03:30:17;16.90;;;12.77;;
59876;SDS011;45749;51.140;17.184;2023-03-23T03:32:49;16.60;;;12.45;;
59876;SDS011;45749;51.140;17.184;2023-03-23T03:35:18;18.13;;;12.60;;
59876;SDS011;45749;51.140;17.184;2023-03-23T03:37:46;20.55;;;11.75;;
59876;SDS011;45749;51.140;17.184;2023-03-23T03:40:13;15.70;;;10.75;;
59876;SDS011;45749;51.140;17.184;2023-03-23T03:42:42;19.23;;;11.00;;
59876;SDS011;45749;51.140;17.184;2023-03-23T03:45:09;17.90;;;11.57;;
59876;SDS011;45749;51.140;17.184;2023-03-23T03:47:41;18.95;;;11.82;;
59876;SDS011;45749;51.140;17.184;2023-03-23T03:50:06;18.90;;;11.70;;
59876;SDS011;45749;51.140;17.184;2023-03-23T03:52:33;14.80;;;11.32;;
59876;SDS011;45749;51.140;17.184;2023-03-23T03:54:59;16.83;;;12.23;;
59876;SDS011;45749;51.140;17.184;2023-03-23T03:57:24;15.73;;;11.85;;
59876;SDS011;45749;51.140;17.184;2023-03-23T03:59:50;15.73;;;11.52;;
59876;SDS011;45749;51.140;17.184;2023-03-23T04:02:16;16.63;;;11.40;;
59876;SDS011;45749;51.140;17.184;2023-03-23T04:04:45;17.60;;;12.35;;
59876;SDS011;45749;51.140;17.184;2023-03-23T04:07:14;16.13;;;10.48;;
59876;SDS011;45749;51.140;17.184;2023-03-23T04:09:43;13.48;;;10.63;;
59876;SDS011;45749;51.140;17.184;2023-03-23T04:12:11;13.02;;;9.95;;
59876;SDS011;45749;51.140;17.184;2023-03-23T04:14:37;20.58;;;10.88;;
59876;SDS011;45749;51.140;17.184;2023-03-23T04:17:03;14.30;;;9.50;;
59876;SDS011;45749;51.140;17.184;2023-03-23T04:19:28;14.10;;;9.23;;
59876;SDS011;45749;51.140;17.184;2023-03-23T04:21:58;13.98;;;9.32;;
59876;SDS011;45749;51.140;17.184;2023-03-23T04:24:24;10.93;;;8.80;;
59876;SDS011;45749;51.140;17.184;2023-03-23T04:26:49;14.10;;;8.30;;
59876;SDS011;45749;51.140;17.184;2023-03-23T04:29:17;11.43;;;7.10;;
59876;SDS011;45749;51.140;17.184;2023-03-23T04:31:43;10.80;;;7.03;;
59876;SDS011;45749;51.140;17.184;2023-03-23T04:34:10;10.45;;;8.15;;
59876;SDS011;45749;51.140;17.184;2023-03-23T04:36:38;10.05;;;7.88;;
59876;SDS011;45749;51.140;17.184;2023-03-23T04:39:04;9.40;;;7.35;;
59876;SDS011;45749;51.140;17.184;2023-03-23T04:41:31;9.10;;;7.18;;
59876;SDS011;45749;51.140;17.184;2023-03-23T04:43:57;12.10;;;7.35;;
59876;SDS011;45749;51.140;17.184;2023-03-23T04:46:29;12.35;;;7.55;;
59876;SDS011;45749;51.140;17.184;2023-03-23T04:48:55;10.13;;;6.95;;
59876;SDS011;45749;51.140;17.184;2023-03-23T04:51:23;10.02;;;7.35;;
59876;SDS011;45749;51.140;17.184;2023-03-23T04:53:49;11.80;;;6.95;;
59876;SDS011;45749;51.140;17.184;2023-03-23T04:56:15;8.20;;;7.10;;
59876;SDS011;45749;51.140;17.184;2023-03-23T04:58:40;9.85;;;5.75;;
59876;SDS011;45749;51.140;17.184;2023-03-23T05:01:06;9.73;;;6.70;;
59876;SDS011;45749;51.140;17.184;2023-03-23T05:03:31;9.57;;;6.00;;
59876;SDS011;45749;51.140;17.184;2023-03-23T05:05:57;8.80;;;6.72;;
59876;SDS011;45749;51.140;17.184;2023-03-23T05:08:25;9.50;;;5.88;;
59876;SDS011;45749;51.140;17.184;2023-03-23T05:10:51;9.93;;;5.90;;
59876;SDS011;45749;51.140;17.184;2023-03-23T05:13:21;8.68;;;5.93;;
59876;SDS011;45749;51.140;17.184;2023-03-23T05:15:47;10.93;;;5.70;;
59876;SDS011;45749;51.140;17.184;2023-03-23T05:18:13;9.93;;;6.15;;
59876;SDS011;45749;51.140;17.184;2023-03-23T05:20:38;8.50;;;6.78;;
59876;SDS011;45749;51.140;17.184;2023-03-23T05:23:04;10.40;;;6.15;;
59876;SDS011;45749;51.140;17.184;2023-03-23T05:25:30;8.50;;;6.18;;
59876;SDS011;45749;51.140;17.184;2023-03-23T05:27:57;9.40;;;6.40;;
59876;SDS011;45749;51.140;17.184;2023-03-23T05:30:24;9.25;;;6.72;;
59876;SDS011;45749;51.140;17.184;2023-03-23T05:32:50;8.75;;;6.63;;
59876;SDS011;45749;51.140;17.184;2023-03-23T05:35:16;9.32;;;6.55;;
59876;SDS011;45749;51.140;17.184;2023-03-23T05:37:42;8.80;;;6.38;;
59876;SDS011;45749;51.140;17.184;2023-03-23T05:40:08;10.23;;;6.22;;
59876;SDS011;45749;51.140;17.184;2023-03-23T05:42:39;11.50;;;5.75;;
59876;SDS011;45749;51.140;17.184;2023-03-23T05:45:10;9.10;;;5.22;;
59876;SDS011;45749;51.140;17.184;2023-03-23T05:47:37;10.27;;;5.85;;
59876;SDS011;45749;51.140;17.184;2023-03-23T05:50:05;8.98;;;5.97;;
59876;SDS011;45749;51.140;17.184;2023-03-23T05:52:31;10.82;;;5.75;;
59876;SDS011;45749;51.140;17.184;2023-03-23T05:55:00;8.55;;;5.53;;
59876;SDS011;45749;51.140;17.184;2023-03-23T05:57:26;7.55;;;5.75;;
59876;SDS011;45749;51.140;17.184;2023-03-23T05:59:52;9.23;;;5.47;;
59876;SDS011;45749;51.140;17.184;2023-03-23T06:02:18;11.45;;;5.35;;
59876;SDS011;45749;51.140;17.184;2023-03-23T06:04:43;8.18;;;4.85;;
59876;SDS011;45749;51.140;17.184;2023-03-23T06:07:10;10.27;;;4.93;;
59876;SDS011;45749;51.140;17.184;2023-03-23T06:09:38;8.30;;;5.30;;
59876;SDS011;45749;51.140;17.184;2023-03-23T06:12:05;8.43;;;5.07;;
59876;SDS011;45749;51.140;17.184;2023-03-23T06:14:31;6.20;;;4.40;;
59876;SDS011;45749;51.140;17.184;2023-03-23T06:16:57;7.07;;;4.95;;
59876;SDS011;45749;51.140;17.184;2023-03-23T06:19:22;7.32;;;4.63;;
59876;SDS011;45749;51.140;17.184;2023-03-23T06:21:48;8.55;;;5.20;;
59876;SDS011;45749;51.140;17.184;2023-03-23T06:24:14;7.82;;;4.85;;
59876;SDS011;45749;51.140;17.184;2023-03-23T06:26:40;6.65;;;4.97;;
59876;SDS011;45749;51.140;17.184;2023-03-23T06:29:09;7.57;;;5.28;;
59876;SDS011;45749;51.140;17.184;2023-03-23T06:31:38;8.35;;;4.65;;
59876;SDS011;45749;51.140;17.184;2023-03-23T06:34:06;7.38;;;5.28;;
59876;SDS011;45749;51.140;17.184;2023-03-23T06:36:33;6.28;;;5.35;;
59876;SDS011;45749;51.140;17.184;2023-03-23T06:38:58;9.88;;;6.13;;
59876;SDS011;45749;51.140;17.184;2023-03-23T06:41:23;7.30;;;4.57;;
59876;SDS011;45749;51.140;17.184;2023-03-23T06:43:49;7.10;;;4.97;;
59876;SDS011;45749;51.140;17.184;2023-03-23T06:46:14;7.03;;;4.70;;
59876;SDS011;45749;51.140;17.184;2023-03-23T06:48:40;8.55;;;4.90;;
59876;SDS011;45749;51.140;17.184;2023-03-23T06:51:05;8.30;;;4.82;;
59876;SDS011;45749;51.140;17.184;2023-03-23T06:53:31;7.82;;;4.20;;
59876;SDS011;45749;51.140;17.184;2023-03-23T06:55:56;6.30;;;3.85;;
59876;SDS011;45749;51.140;17.184;2023-03-23T06:58:22;11.52;;;4.40;;
59876;SDS011;45749;51.140;17.184;2023-03-23T07:00:52;8.05;;;4.63;;
59876;SDS011;45749;51.140;17.184;2023-03-23T07:03:20;6.45;;;3.83;;
59876;SDS011;45749;51.140;17.184;2023-03-23T07:05:46;7.72;;;4.55;;
59876;SDS011;45749;51.140;17.184;2023-03-23T07:08:12;8.65;;;4.63;;
59876;SDS011;45749;51.140;17.184;2023-03-23T07:10:38;7.47;;;4.03;;
59876;SDS011;45749;51.140;17.184;2023-03-23T07:13:03;5.90;;;3.58;;
59876;SDS011;45749;51.140;17.184;2023-03-23T07:15:29;9.80;;;4.57;;
59876;SDS011;45749;51.140;17.184;2023-03-23T07:17:54;6.40;;;4.18;;
59876;SDS011;45749;51.140;17.184;2023-03-23T07:20:20;5.00;;;3.65;;
59876;SDS011;45749;51.140;17.184;2023-03-23T07:22:46;5.28;;;3.78;;
59876;SDS011;45749;51.140;17.184;2023-03-23T07:25:11;6.53;;;3.65;;
59876;SDS011;45749;51.140;17.184;2023-03-23T07:27:36;5.97;;;3.28;;
59876;SDS011;45749;51.140;17.184;2023-03-23T07:30:02;7.10;;;3.35;;
59876;SDS011;45749;51.140;17.184;2023-03-23T07:32:28;6.47;;;3.60;;
59876;SDS011;45749;51.140;17.184;2023-03-23T07:34:54;4.97;;;3.17;;
59876;SDS011;45749;51.140;17.184;2023-03-23T07:37:21;8.23;;;3.83;;
59876;SDS011;45749;51.140;17.184;2023-03-23T07:39:47;7.32;;;4.47;;
59876;SDS011;45749;51.140;17.184;2023-03-23T07:42:13;5.90;;;3.15;;
59876;SDS011;45749;51.140;17.184;2023-03-23T07:44:38;5.35;;;3.83;;
59876;SDS011;45749;51.140;17.184;2023-03-23T07:47:04;7.07;;;4.22;;
59876;SDS011;45749;51.140;17.184;2023-03-23T07:49:29;7.85;;;4.00;;
59876;SDS011;45749;51.140;17.184;2023-03-23T07:51:56;8.68;;;4.72;;
59876;SDS011;45749;51.140;17.184;2023-03-23T07:54:22;8.50;;;4.40;;
59876;SDS011;45749;51.140;17.184;2023-03-23T07:56:48;8.00;;;4.20;;
59876;SDS011;45749;51.140;17.184;2023-03-23T07:59:13;7.72;;;3.80;;
59876;SDS011;45749;51.140;17.184;2023-03-23T08:01:39;7.13;;;4.43;;
59876;SDS011;45749;51.140;17.184;2023-03-23T08:04:05;7.72;;;5.10;;
59876;SDS011;45749;51.140;17.184;2023-03-23T08:06:34;10.65;;;4.18;;
59876;SDS011;45749;51.140;17.184;2023-03-23T08:09:00;6.57;;;4.18;;
59876;SDS011;45749;51.140;17.184;2023-03-23T08:11:25;10.20;;;5.18;;
59876;SDS011;45749;51.140;17.184;2023-03-23T08:13:51;5.70;;;4.32;;
59876;SDS011;45749;51.140;17.184;2023-03-23T08:16:18;6.97;;;4.88;;
59876;SDS011;45749;51.140;17.184;2023-03-23T08:18:45;9.13;;;5.05;;
59876;SDS011;45749;51.140;17.184;2023-03-23T08:21:11;6.82;;;4.38;;
59876;SDS011;45749;51.140;17.184;2023-03-23T08:23:37;8.85;;;5.03;;
59876;SDS011;45749;51.140;17.184;2023-03-23T08:26:03;8.30;;;5.43;;
59876;SDS011;45749;51.140;17.184;2023-03-23T08:28:33;6.72;;;5.30;;
59876;SDS011;45749;51.140;17.184;2023-03-23T08:31:09;7.72;;;4.82;;
59876;SDS011;45749;51.140;17.184;2023-03-23T08:33:36;7.68;;;5.57;;
59876;SDS011;45749;51.140;17.184;2023-03-23T08:36:03;10.13;;;4.80;;
59876;SDS011;45749;51.140;17.184;2023-03-23T08:38:29;7.07;;;5.45;;
59876;SDS011;45749;51.140;17.184;2023-03-23T08:40:58;6.93;;;4.45;;
59876;SDS011;45749;51.140;17.184;2023-03-23T08:43:29;4.80;;;3.60;;
59876;SDS011;45749;51.140;17.184;2023-03-23T08:45:57;7.80;;;4.75;;
59876;SDS011;45749;51.140;17.184;2023-03-23T08:48:22;5.65;;;3.28;;
59876;SDS011;45749;51.140;17.184;2023-03-23T08:50:48;4.85;;;3.13;;
59876;SDS011;45749;51.140;17.184;2023-03-23T08:53:15;9.43;;;4.30;;
59876;SDS011;45749;51.140;17.184;2023-03-23T08:55:41;8.10;;;3.95;;
59876;SDS011;45749;51.140;17.184;2023-03-23T08:58:08;5.03;;;3.20;;
59876;SDS011;45749;51.140;17.184;2023-03-23T09:00:34;5.10;;;3.88;;
59876;SDS011;45749;51.140;17.184;2023-03-23T09:02:59;7.95;;;4.72;;
59876;SDS011;45749;51.140;17.184;2023-03-23T09:05:26;6.00;;;3.33;;
59876;SDS011;45749;51.140;17.184;2023-03-23T09:07:54;6.32;;;3.63;;
59876;SDS011;45749;51.140;17.184;2023-03-23T09:10:24;4.40;;;3.33;;
59876;SDS011;45749;51.140;17.184;2023-03-23T09:12:51;8.45;;;3.72;;
59876;SDS011;45749;51.140;17.184;2023-03-23T09:15:18;4.45;;;2.47;;
59876;SDS011;45749;51.140;17.184;2023-03-23T09:17:46;5.18;;;2.50;;
59876;SDS011;45749;51.140;17.184;2023-03-23T09:20:15;3.88;;;2.10;;
59876;SDS011;45749;51.140;17.184;2023-03-23T09:22:44;3.42;;;2.13;;
59876;SDS011;45749;51.140;17.184;2023-03-23T09:25:14;3.92;;;2.00;;
59876;SDS011;45749;51.140;17.184;2023-03-23T09:27:44;5.30;;;2.08;;
59876;SDS011;45749;51.140;17.184;2023-03-23T09:30:12;3.58;;;2.10;;
59876;SDS011;45749;51.140;17.184;2023-03-23T09:32:39;3.45;;;2.17;;
59876;SDS011;45749;51.140;17.184;2023-03-23T09:35:05;3.70;;;2.30;;
59876;SDS011;45749;51.140;17.184;2023-03-23T09:37:34;4.22;;;2.38;;
59876;SDS011;45749;51.140;17.184;2023-03-23T09:40:01;6.10;;;2.42;;
59876;SDS011;45749;51.140;17.184;2023-03-23T09:42:40;4.50;;;2.50;;
59876;SDS011;45749;51.140;17.184;2023-03-23T09:45:25;4.30;;;2.65;;
59876;SDS011;45749;51.140;17.184;2023-03-23T09:48:23;3.83;;;2.28;;
59876;SDS011;45749;51.140;17.184;2023-03-23T09:50:52;3.92;;;2.00;;
59876;SDS011;45749;51.140;17.184;2023-03-23T09:53:37;3.53;;;2.47;;
59876;SDS011;45749;51.140;17.184;2023-03-23T09:56:13;5.18;;;2.47;;
59876;SDS011;45749;51.140;17.184;2023-03-23T09:58:51;6.25;;;2.45;;
59876;SDS011;45749;51.140;17.184;2023-03-23T10:01:33;4.23;;;2.77;;
59876;SDS011;45749;51.140;17.184;2023-03-23T10:04:05;3.50;;;2.70;;
59876;SDS011;45749;51.140;17.184;2023-03-23T10:06:37;5.72;;;2.17;;
59876;SDS011;45749;51.140;17.184;2023-03-23T10:09:04;4.15;;;2.28;;
59876;SDS011;45749;51.140;17.184;2023-03-23T10:14:27;4.80;;;1.75;;
59876;SDS011;45749;51.140;17.184;2023-03-23T10:17:15;5.20;;;1.85;;
59876;SDS011;45749;51.140;17.184;2023-03-23T10:22:17;4.30;;;2.42;;
59876;SDS011;45749;51.140;17.184;2023-03-23T10:24:51;3.63;;;2.00;;
59876;SDS011;45749;51.140;17.184;2023-03-23T10:27:42;3.50;;;1.85;;
59876;SDS011;45749;51.140;17.184;2023-03-23T10:30:19;3.08;;;1.80;;
59876;SDS011;45749;51.140;17.184;2023-03-23T10:32:52;3.83;;;1.83;;
59876;SDS011;45749;51.140;17.184;2023-03-23T10:35:26;3.92;;;1.40;;
59876;SDS011;45749;51.140;17.184;2023-03-23T10:37:58;2.35;;;1.08;;
59876;SDS011;45749;51.140;17.184;2023-03-23T10:40:28;2.33;;;1.40;;
59876;SDS011;45749;51.140;17.184;2023-03-23T10:42:55;1.45;;;1.10;;
59876;SDS011;45749;51.140;17.184;2023-03-23T10:45:27;3.33;;;1.40;;
59876;SDS011;45749;51.140;17.184;2023-03-23T10:48:15;1.85;;;0.93;;
59876;SDS011;45749;51.140;17.184;2023-03-23T10:50:56;3.83;;;0.95;;
59876;SDS011;45749;51.140;17.184;2023-03-23T10:53:28;2.45;;;1.10;;
59876;SDS011;45749;51.140;17.184;2023-03-23T10:55:58;5.25;;;2.22;;
59876;SDS011;45749;51.140;17.184;2023-03-23T10:58:29;2.75;;;0.93;;
59876;SDS011;45749;51.140;17.184;2023-03-23T11:00:57;1.35;;;0.60;;
59876;SDS011;45749;51.140;17.184;2023-03-23T11:03:29;2.92;;;1.23;;
59876;SDS011;45749;51.140;17.184;2023-03-23T11:06:07;4.03;;;1.00;;
59876;SDS011;45749;51.140;17.184;2023-03-23T11:08:36;2.08;;;1.45;;
59876;SDS011;45749;51.140;17.184;2023-03-23T11:11:18;4.30;;;1.85;;
59876;SDS011;45749;51.140;17.184;2023-03-23T11:13:59;2.83;;;1.50;;
59876;SDS011;45749;51.140;17.184;2023-03-23T11:16:29;1.85;;;1.60;;
59876;SDS011;45749;51.140;17.184;2023-03-23T11:18:57;1.42;;;1.10;;
59876;SDS011;45749;51.140;17.184;2023-03-23T11:21:24;1.92;;;1.05;;
59876;SDS011;45749;51.140;17.184;2023-03-23T11:23:53;1.52;;;0.90;;
59876;SDS011;45749;51.140;17.184;2023-03-23T11:26:26;1.13;;;0.88;;
59876;SDS011;45749;51.140;17.184;2023-03-23T11:29:09;1.42;;;0.60;;
59876;SDS011;45749;51.140;17.184;2023-03-23T11:31:40;2.53;;;1.00;;
59876;SDS011;45749;51.140;17.184;2023-03-23T11:36:41;1.33;;;0.80;;
59876;SDS011;45749;51.140;17.184;2023-03-23T11:41:52;3.42;;;0.90;;
59876;SDS011;45749;51.140;17.184;2023-03-23T11:44:20;2.05;;;0.63;;
59876;SDS011;45749;51.140;17.184;2023-03-23T11:49:50;2.28;;;1.00;;
59876;SDS011;45749;51.140;17.184;2023-03-23T11:52:23;3.97;;;1.17;;
59876;SDS011;45749;51.140;17.184;2023-03-23T11:55:00;3.63;;;1.40;;
59876;SDS011;45749;51.140;17.184;2023-03-23T11:58:00;1.90;;;0.98;;
59876;SDS011;45749;51.140;17.184;2023-03-23T12:00:30;4.50;;;0.98;;
59876;SDS011;45749;51.140;17.184;2023-03-23T12:19:16;3.53;;;1.17;;
59876;SDS011;45749;51.140;17.184;2023-03-23T12:37:59;2.65;;;1.17;;
59876;SDS011;45749;51.140;17.184;2023-03-23T12:40:39;2.78;;;1.30;;
59876;SDS011;45749;51.140;17.184;2023-03-23T12:46:10;2.50;;;1.05;;
59876;SDS011;45749;51.140;17.184;2023-03-23T12:48:49;3.97;;;1.33;;
59876;SDS011;45749;51.140;17.184;2023-03-23T12:54:12;2.55;;;1.40;;
59876;SDS011;45749;51.140;17.184;2023-03-23T12:57:05;4.15;;;1.73;;
59876;SDS011;45749;51.140;17.184;2023-03-23T13:04:46;4.45;;;1.40;;
59876;SDS011;45749;51.140;17.184;2023-03-23T13:07:29;3.80;;;1.80;;
59876;SDS011;45749;51.140;17.184;2023-03-23T13:12:34;4.22;;;1.73;;
59876;SDS011;45749;51.140;17.184;2023-03-23T13:17:43;4.82;;;2.05;;
59876;SDS011;45749;51.140;17.184;2023-03-23T13:23:24;3.42;;;2.10;;
59876;SDS011;45749;51.140;17.184;2023-03-23T13:26:12;4.45;;;1.58;;
59876;SDS011;45749;51.140;17.184;2023-03-23T13:31:20;5.68;;;1.85;;
59876;SDS011;45749;51.140;17.184;2023-03-23T13:34:02;4.00;;;1.67;;
59876;SDS011;45749;51.140;17.184;2023-03-23T13:39:01;2.35;;;1.50;;
59876;SDS011;45749;51.140;17.184;2023-03-23T13:41:29;3.78;;;1.08;;
59876;SDS011;45749;51.140;17.184;2023-03-23T13:44:07;2.88;;;1.63;;
59876;SDS011;45749;51.140;17.184;2023-03-23T13:46:57;2.50;;;1.50;;
59876;SDS011;45749;51.140;17.184;2023-03-23T13:49:51;3.30;;;2.25;;
59876;SDS011;45749;51.140;17.184;2023-03-23T13:52:36;3.30;;;1.85;;
59876;SDS011;45749;51.140;17.184;2023-03-23T14:05:45;7.65;;;2.20;;
59876;SDS011;45749;51.140;17.184;2023-03-23T14:10:53;6.13;;;2.10;;
59876;SDS011;45749;51.140;17.184;2023-03-23T14:18:29;2.83;;;1.98;;
59876;SDS011;45749;51.140;17.184;2023-03-23T14:21:03;3.70;;;2.33;;
59876;SDS011;45749;51.140;17.184;2023-03-23T14:23:31;3.20;;;1.90;;
59876;SDS011;45749;51.140;17.184;2023-03-23T14:26:01;3.70;;;1.85;;
59876;SDS011;45749;51.140;17.184;2023-03-23T14:31:01;4.00;;;2.13;;
59876;SDS011;45749;51.140;17.184;2023-03-23T14:33:27;2.42;;;1.80;;
59876;SDS011;45749;51.140;17.184;2023-03-23T14:35:56;3.75;;;2.30;;
59876;SDS011;45749;51.140;17.184;2023-03-23T14:38:23;3.53;;;2.05;;
59876;SDS011;45749;51.140;17.184;2023-03-23T14:40:53;4.00;;;2.08;;
59876;SDS011;45749;51.140;17.184;2023-03-23T14:43:24;3.67;;;2.80;;
59876;SDS011;45749;51.140;17.184;2023-03-23T14:45:51;6.75;;;4.50;;
59876;SDS011;45749;51.140;17.184;2023-03-23T14:48:19;11.90;;;6.38;;
59876;SDS011;45749;51.140;17.184;2023-03-23T14:50:50;13.55;;;6.88;;
59876;SDS011;45749;51.140;17.184;2023-03-23T14:55:52;14.63;;;7.15;;
59876;SDS011;45749;51.140;17.184;2023-03-23T14:58:20;6.47;;;4.32;;
59876;SDS011;45749;51.140;17.184;2023-03-23T15:00:54;20.42;;;12.02;;
59876;SDS011;45749;51.140;17.184;2023-03-23T15:03:21;8.65;;;5.22;;
59876;SDS011;45749;51.140;17.184;2023-03-23T15:05:49;5.70;;;3.10;;
59876;SDS011;45749;51.140;17.184;2023-03-23T15:08:25;4.07;;;2.42;;
59876;SDS011;45749;51.140;17.184;2023-03-23T15:10:59;5.32;;;3.15;;
59876;SDS011;45749;51.140;17.184;2023-03-23T15:13:32;7.15;;;3.45;;
59876;SDS011;45749;51.140;17.184;2023-03-23T15:16:03;7.65;;;2.95;;
59876;SDS011;45749;51.140;17.184;2023-03-23T15:18:32;3.58;;;2.45;;
59876;SDS011;45749;51.140;17.184;2023-03-23T15:21:07;10.25;;;3.15;;
59876;SDS011;45749;51.140;17.184;2023-03-23T15:23:34;6.70;;;2.42;;
59876;SDS011;45749;51.140;17.184;2023-03-23T15:26:06;3.83;;;2.70;;
59876;SDS011;45749;51.140;17.184;2023-03-23T15:28:40;7.78;;;2.63;;
59876;SDS011;45749;51.140;17.184;2023-03-23T15:31:06;4.18;;;2.40;;
59876;SDS011;45749;51.140;17.184;2023-03-23T15:33:35;3.55;;;2.47;;
59876;SDS011;45749;51.140;17.184;2023-03-23T15:36:06;3.65;;;3.35;;
59876;SDS011;45749;51.140;17.184;2023-03-23T15:38:34;4.93;;;1.93;;
59876;SDS011;45749;51.140;17.184;2023-03-23T15:41:04;5.55;;;4.05;;
59876;SDS011;45749;51.140;17.184;2023-03-23T15:43:37;6.78;;;5.63;;
59876;SDS011;45749;51.140;17.184;2023-03-23T15:51:17;3.15;;;2.03;;
59876;SDS011;45749;51.140;17.184;2023-03-23T15:53:48;3.95;;;2.33;;
59876;SDS011;45749;51.140;17.184;2023-03-23T15:56:15;4.38;;;2.28;;
59876;SDS011;45749;51.140;17.184;2023-03-23T15:58:41;7.68;;;5.00;;
59876;SDS011;45749;51.140;17.184;2023-03-23T16:01:10;6.93;;;3.67;;
59876;SDS011;45749;51.140;17.184;2023-03-23T16:03:57;18.85;;;11.18;;
59876;SDS011;45749;51.140;17.184;2023-03-23T16:06:30;9.23;;;5.07;;
59876;SDS011;45749;51.140;17.184;2023-03-23T16:08:57;9.80;;;6.68;;
59876;SDS011;45749;51.140;17.184;2023-03-23T16:11:25;13.18;;;10.30;;
59876;SDS011;45749;51.140;17.184;2023-03-23T16:13:52;34.13;;;21.30;;
59876;SDS011;45749;51.140;17.184;2023-03-23T16:16:20;18.02;;;10.65;;
59876;SDS011;45749;51.140;17.184;2023-03-23T16:18:48;11.32;;;7.20;;
59876;SDS011;45749;51.140;17.184;2023-03-23T16:21:14;13.82;;;9.88;;
59876;SDS011;45749;51.140;17.184;2023-03-23T16:23:40;10.52;;;7.32;;
59876;SDS011;45749;51.140;17.184;2023-03-23T16:26:08;10.70;;;6.88;;
59876;SDS011;45749;51.140;17.184;2023-03-23T16:28:34;7.30;;;4.93;;
59876;SDS011;45749;51.140;17.184;2023-03-23T16:31:00;9.45;;;7.20;;
59876;SDS011;45749;51.140;17.184;2023-03-23T16:33:25;16.20;;;11.60;;
59876;SDS011;45749;51.140;17.184;2023-03-23T16:35:50;18.92;;;11.82;;
59876;SDS011;45749;51.140;17.184;2023-03-23T16:38:16;18.50;;;12.23;;
59876;SDS011;45749;51.140;17.184;2023-03-23T16:40:42;13.50;;;9.25;;